Time;durP1;ratioP1;P1;durP2;ratioP2;P2;SDS_P1;SDS_P2;PMS_P1;PMS_P2;Temp;Humidity;BMP_temperature;BMP_pressure;BME280_temperature;BME280_humidity;BME280_pressure;Samples;Min_cycle;Max_cycle;Signal;HPM_P1;HPM_P2
2023/04/01 00:01:26;;;;;;;16.30;13.40;;;;;;;10.27;72.65;98528.19;108513;1288;21849;-79
2023/04/01 00:04:17;;;;;;;15.10;13.60;;;;;;;10.19;72.79;98528.86;108050;1293;23723;-81
2023/04/01 00:07:03;;;;;;;13.80;12.00;;;;;;;10.15;72.61;98527.21;107999;1294;23767;-79
2023/04/01 00:09:37;;;;;;;16.00;12.80;;;;;;;10.10;72.63;98523.72;107728;1294;22980;-81
2023/04/01 00:12:13;;;;;;;13.60;12.10;;;;;;;10.07;72.69;98522.16;107986;1290;22080;-82
2023/04/01 00:14:52;;;;;;;14.80;13.10;;;;;;;10.03;72.88;98522.46;108052;1290;22001;-78
2023/04/01 00:17:32;;;;;;;15.00;12.00;;;;;;;9.98;72.73;98518.91;108164;1290;23874;-78
2023/04/01 00:20:19;;;;;;;15.00;12.40;;;;;;;9.97;73.02;98514.48;108461;1290;22382;-79
2023/04/01 00:22:52;;;;;;;12.90;11.70;;;;;;;9.92;73.06;98508.48;108270;1290;23862;-80
2023/04/01 00:25:26;;;;;;;14.70;13.20;;;;;;;9.92;73.41;98503.82;107648;1296;22005;-79
2023/04/01 00:28:04;;;;;;;12.50;11.20;;;;;;;9.89;73.27;98509.05;107629;1294;23085;-80
2023/04/01 00:30:36;;;;;;;11.00;8.40;;;;;;;9.86;73.23;98509.95;108423;1285;22037;-79
2023/04/01 00:33:28;;;;;;;13.90;12.20;;;;;;;9.83;73.05;98516.05;108807;1283;23688;-79
2023/04/01 00:36:21;;;;;;;14.80;11.90;;;;;;;9.78;73.07;98516.71;109012;1278;21982;-80
2023/04/01 00:38:56;;;;;;;12.70;11.40;;;;;;;9.73;73.15;98516.84;109228;1277;21985;-80
2023/04/01 00:41:27;;;;;;;13.70;11.10;;;;;;;9.69;73.13;98516.23;109367;1271;22303;-80
2023/04/01 00:44:33;;;;;;;13.20;11.40;;;;;;;9.66;73.09;98516.98;109598;1265;21979;-79
2023/04/01 00:47:17;;;;;;;11.70;10.50;;;;;;;9.58;73.24;98513.27;110322;1265;22116;-79
2023/04/01 00:50:15;;;;;;;14.90;12.10;;;;;;;9.55;73.38;98515.40;110297;1265;23029;-78
2023/04/01 00:53:06;;;;;;;13.80;11.10;;;;;;;9.50;73.48;98518.13;110305;1262;22720;-78
2023/04/01 00:55:52;;;;;;;14.00;12.30;;;;;;;9.45;73.54;98516.72;110499;1263;22501;-78
2023/04/01 00:58:41;;;;;;;14.90;13.40;;;;;;;9.38;73.70;98513.70;110524;1263;22003;-78
2023/04/01 01:01:27;;;;;;;18.20;16.40;;;;;;;9.36;73.93;98509.14;110524;1262;21963;-79
2023/04/01 01:04:07;;;;;;;18.30;16.40;;;;;;;9.36;74.06;98505.97;110563;1262;23745;-79
2023/04/01 01:06:54;;;;;;;15.70;14.00;;;;;;;9.38;74.27;98505.17;110570;1261;21974;-78
2023/04/01 01:10:28;;;;;;;14.60;12.80;;;;;;;9.41;74.24;98504.48;109916;1268;21970;-79
2023/04/01 01:14:13;;;;;;;17.00;13.30;;;;;;;9.41;74.35;98506.54;110012;1268;21976;-79
2023/04/01 01:17:30;;;;;;;16.10;12.80;;;;;;;9.39;74.40;98500.45;110059;1267;22023;-78
2023/04/01 01:20:45;;;;;;;13.40;11.00;;;;;;;9.35;74.37;98502.73;110012;1268;22991;-78
2023/04/01 01:24:25;;;;;;;12.90;10.50;;;;;;;9.36;74.41;98502.54;109326;1273;22452;-78
2023/04/01 01:27:12;;;;;;;11.40;9.30;;;;;;;9.36;74.38;98497.13;109365;1268;22201;-78
2023/04/01 01:30:37;;;;;;;12.60;9.10;;;;;;;9.39;74.41;98498.16;110117;1268;21994;-78
2023/04/01 01:33:44;;;;;;;12.00;9.80;;;;;;;9.40;74.42;98501.94;109401;1273;21973;-78
2023/04/01 01:36:34;;;;;;;12.60;9.50;;;;;;;9.40;74.27;98500.20;109270;1273;21991;-80
2023/04/01 01:39:17;;;;;;;15.60;9.80;;;;;;;9.42;74.20;98499.73;109172;1273;21951;-79
2023/04/01 01:41:57;;;;;;;10.00;8.20;;;;;;;9.43;74.02;98503.80;109897;1259;21976;-80
2023/04/01 01:44:40;;;;;;;10.60;8.50;;;;;;;9.42;73.81;98501.63;109525;1269;21990;-79
2023/04/01 01:47:19;;;;;;;10.00;8.00;;;;;;;9.41;74.01;98504.14;109733;1269;21953;-79
2023/04/01 01:49:55;;;;;;;9.10;7.70;;;;;;;9.42;73.88;98506.30;109443;1269;22051;-78
2023/04/01 01:52:39;;;;;;;;;;;;;;;9.43;73.84;98505.88;109534;1269;23653;-79
2023/04/01 01:55:36;;;;;;;9.20;7.70;;;;;;;9.36;74.04;98502.67;109243;1275;21957;-81
2023/04/01 01:58:40;;;;;;;9.10;7.00;;;;;;;9.35;74.09;98503.25;109125;1275;22612;-78
2023/04/01 02:01:35;;;;;;;7.70;6.90;;;;;;;9.36;74.08;98499.76;108601;1287;21990;-79
2023/04/01 02:04:29;;;;;;;9.40;6.70;;;;;;;9.39;74.08;98504.59;108302;1290;22948;-79
2023/04/01 02:07:25;;;;;;;9.70;6.80;;;;;;;9.42;74.11;98504.93;108329;1290;22960;-80
2023/04/01 02:10:03;;;;;;;7.70;6.60;;;;;;;9.42;73.80;98504.75;108431;1286;21990;-79
2023/04/01 02:12:46;;;;;;;7.10;5.80;;;;;;;9.41;73.77;98506.01;108699;1280;23631;-80
2023/04/01 02:15:36;;;;;;;9.80;6.60;;;;;;;9.41;73.72;98505.34;108949;1280;24380;-79
2023/04/01 02:18:11;;;;;;;9.10;6.80;;;;;;;9.43;73.64;98503.48;109123;1280;24339;-80
2023/04/01 02:20:45;;;;;;;10.80;6.40;;;;;;;9.46;73.69;98504.51;109003;1280;21993;-81
2023/04/01 02:23:21;;;;;;;8.00;6.30;;;;;;;9.49;73.69;98499.62;109100;1280;24445;-78
2023/04/01 02:26:05;;;;;;;12.50;6.10;;;;;;;9.53;73.46;98495.23;109118;1273;21985;-78
2023/04/01 02:28:43;;;;;;;;;;;;;;;9.56;73.50;98492.06;109320;1271;21962;-79
2023/04/01 02:31:22;;;;;;;6.20;5.60;;;;;;;9.50;73.57;98496.61;109528;1271;22274;-77
2023/04/01 02:34:05;;;;;;;8.30;6.50;;;;;;;9.51;73.31;98494.48;109522;1271;21990;-79
2023/04/01 02:36:47;;;;;;;9.30;7.40;;;;;;;9.51;73.36;98494.79;109539;1271;23050;-80
2023/04/01 02:39:26;;;;;;;9.30;5.90;;;;;;;9.53;73.33;98490.89;109914;1254;23051;-79
2023/04/01 02:42:10;;;;;;;8.00;5.90;;;;;;;9.53;73.10;98488.41;110308;1267;23091;-81
2023/04/01 02:44:47;;;;;;;7.60;5.50;;;;;;;9.53;72.97;98490.34;109765;1266;23550;-80
2023/04/01 02:47:31;;;;;;;14.10;6.60;;;;;;;9.54;72.90;98493.08;109907;1268;21983;-79
2023/04/01 02:50:14;;;;;;;7.50;5.50;;;;;;;9.55;72.91;98492.66;109561;1270;23474;-79
2023/04/01 02:53:25;;;;;;;11.20;5.50;;;;;;;9.51;72.90;98492.58;109858;1270;21997;-80
2023/04/01 02:56:00;;;;;;;8.30;5.40;;;;;;;9.52;72.89;98500.63;109349;1275;23724;-79
2023/04/01 02:58:35;;;;;;;7.70;5.10;;;;;;;9.55;72.74;98500.95;109028;1277;21980;-80
2023/04/01 03:01:23;;;;;;;9.70;5.30;;;;;;;9.55;72.62;98502.55;109219;1278;22011;-79
2023/04/01 03:04:15;;;;;;;5.30;4.70;;;;;;;9.52;72.45;98499.06;108790;1284;22024;-80
2023/04/01 03:06:49;;;;;;;5.50;4.40;;;;;;;9.51;72.58;98501.58;108886;1279;21980;-79
2023/04/01 03:09:34;;;;;;;8.70;5.20;;;;;;;9.48;72.44;98500.05;109052;1280;21981;-79
2023/04/01 03:12:26;;;;;;;7.60;4.80;;;;;;;9.46;72.60;98499.48;109189;1279;23039;-80
2023/04/01 03:15:25;;;;;;;7.40;5.20;;;;;;;9.45;72.63;98500.21;109074;1276;22975;-80
2023/04/01 03:18:02;;;;;;;6.90;5.00;;;;;;;9.46;72.66;98499.66;109638;1272;21976;-79
2023/04/01 03:21:27;;;;;;;5.80;4.50;;;;;;;9.46;72.63;98501.89;109808;1267;22691;-77
2023/04/01 03:24:22;;;;;;;7.70;5.20;;;;;;;9.44;72.65;98500.80;110570;1261;21992;-79
2023/04/01 03:26:59;;;;;;;8.60;4.60;;;;;;;9.44;72.73;98501.55;110532;1261;21972;-79
2023/04/01 03:29:41;;;;;;;9.30;5.00;;;;;;;9.44;72.65;98500.98;110540;1261;21981;-79
2023/04/01 03:32:21;;;;;;;8.50;5.00;;;;;;;9.45;72.60;98502.11;109820;1268;22513;-78
2023/04/01 03:35:04;;;;;;;19.20;14.90;;;;;;;9.45;72.62;98508.21;109613;1267;23033;-79
2023/04/01 03:37:45;;;;;;;44.50;33.80;;;;;;;9.45;72.67;98509.94;109764;1269;21974;-79
2023/04/01 03:40:25;;;;;;;10.90;8.90;;;;;;;9.45;72.68;98513.59;110047;1268;22440;-80
2023/04/01 03:43:09;;;;;;;15.80;13.40;;;;;;;9.47;72.74;98515.76;109555;1272;22196;-79
2023/04/01 03:46:03;;;;;;;17.50;13.00;;;;;;;9.49;72.83;98517.02;109254;1272;24504;-79
2023/04/01 03:49:31;;;;;;;19.20;16.70;;;;;;;9.48;72.74;98516.89;109509;1272;21980;-79
2023/04/01 03:52:11;;;;;;;8.70;6.30;;;;;;;9.46;72.83;98515.22;108985;1278;23749;-79
2023/04/01 03:55:04;;;;;;;8.10;6.00;;;;;;;9.47;72.84;98518.15;109206;1277;21995;-81
2023/04/01 03:58:02;;;;;;;8.90;6.30;;;;;;;9.48;72.94;98515.67;109102;1276;21993;-79
2023/04/01 04:00:49;;;;;;;7.30;5.70;;;;;;;9.49;72.93;98517.17;109128;1273;23103;-79
2023/04/01 04:03:29;;;;;;;10.60;6.80;;;;;;;9.49;72.84;98520.76;109053;1276;22064;-81
2023/04/01 04:06:14;;;;;;;8.40;6.30;;;;;;;9.51;72.79;98524.98;108848;1280;21972;-79
2023/04/01 04:08:54;;;;;;;8.70;6.40;;;;;;;9.52;72.86;98529.98;108903;1270;23170;-79
2023/04/01 04:12:06;;;;;;;14.00;7.50;;;;;;;9.49;72.78;98529.32;108985;1280;21980;-79
2023/04/01 04:15:01;;;;;;;8.50;7.00;;;;;;;9.48;72.90;98528.02;108939;1281;22015;-80
2023/04/01 04:17:54;;;;;;;13.90;8.00;;;;;;;9.49;72.82;98526.73;109203;1276;21989;-80
2023/04/01 04:20:50;;;;;;;11.50;7.50;;;;;;;9.50;73.05;98529.62;108844;1281;22049;-80
2023/04/01 04:23:59;;;;;;;;;;;;;;;;;;;;;
2023/04/01 04:27:12;;;;;;;12.40;7.60;;;;;;;9.54;73.06;98532.65;109252;1273;22142;-80
2023/04/01 04:30:12;;;;;;;13.00;7.30;;;;;;;9.57;73.20;98533.33;109824;1272;21999;-78
2023/04/01 04:33:24;;;;;;;14.80;8.60;;;;;;;9.61;73.10;98532.73;109352;1274;22444;-80
2023/04/01 04:36:14;;;;;;;11.50;7.50;;;;;;;9.65;73.11;98536.84;109248;1271;21981;-79
2023/04/01 04:39:08;;;;;;;14.30;7.90;;;;;;;9.67;73.00;98539.65;109506;1269;21962;-78
2023/04/01 04:41:58;;;;;;;9.20;8.10;;;;;;;9.68;72.95;98540.45;109854;1262;21985;-78
2023/04/01 04:45:07;;;;;;;10.10;7.60;;;;;;;9.72;72.98;98538.48;110622;1250;23512;-78
2023/04/01 04:48:05;;;;;;;9.50;7.80;;;;;;;9.72;72.92;98541.04;110547;1262;22527;-79
2023/04/01 04:50:50;;;;;;;8.80;6.70;;;;;;;9.75;72.95;98538.27;110682;1262;22111;-79
2023/04/01 04:53:40;;;;;;;9.50;6.80;;;;;;;9.74;72.81;98539.91;110140;1265;22013;-80
2023/04/01 04:56:25;;;;;;;8.10;6.10;;;;;;;9.73;72.86;98539.27;109791;1269;22989;-79
2023/04/01 04:59:21;;;;;;;8.60;6.20;;;;;;;9.72;73.01;98541.04;109845;1270;21978;-78
2023/04/01 05:02:19;;;;;;;8.50;7.00;;;;;;;9.75;73.08;98538.63;109769;1269;21997;-78
2023/04/01 05:05:04;;;;;;;8.10;6.90;;;;;;;9.78;73.12;98542.63;109694;1269;22006;-79
2023/04/01 05:07:42;;;;;;;11.10;7.80;;;;;;;9.82;73.26;98539.64;109360;1273;22009;-78
2023/04/01 05:10:23;;;;;;;9.20;6.20;;;;;;;9.86;73.33;98538.61;109589;1273;22031;-78
2023/04/01 05:13:17;;;;;;;8.00;5.90;;;;;;;9.87;73.03;98534.57;109479;1273;24376;-77
2023/04/01 05:16:16;;;;;;;7.80;6.90;;;;;;;9.90;73.08;98535.95;109790;1269;21926;-78
2023/04/01 05:18:51;;;;;;;7.10;6.30;;;;;;;9.95;73.22;98536.67;109227;1272;22873;-78
2023/04/01 05:21:30;;;;;;;11.90;6.90;;;;;;;10.00;73.32;98539.44;109153;1273;21989;-79
2023/04/01 05:24:34;;;;;;;9.00;6.50;;;;;;;10.05;73.28;98541.56;109354;1271;23093;-82
2023/04/01 05:27:27;;;;;;;7.60;5.90;;;;;;;10.10;73.16;98547.02;110052;1268;22138;-77
2023/04/01 05:30:15;;;;;;;9.60;6.50;;;;;;;10.12;72.90;98547.58;109708;1267;21954;-80
2023/04/01 05:33:54;;;;;;;9.30;5.90;;;;;;;10.08;72.79;98549.20;109874;1271;21980;-79
2023/04/01 05:37:35;;;;;;;7.20;5.90;;;;;;;10.06;72.69;98548.85;109769;1271;21985;-78
2023/04/01 05:40:21;;;;;;;10.20;6.80;;;;;;;10.05;72.73;98547.73;109642;1273;23058;-78
2023/04/01 05:43:22;;;;;;;9.80;6.50;;;;;;;10.02;72.76;98547.02;109662;1270;21973;-82
2023/04/01 05:46:39;;;;;;;8.20;6.20;;;;;;;10.04;72.84;98548.29;109293;1275;22959;-78
2023/04/01 05:49:25;;;;;;;13.60;7.20;;;;;;;10.04;72.71;98550.50;109016;1275;23049;-78
2023/04/01 05:52:00;;;;;;;9.30;7.60;;;;;;;10.05;72.85;98552.54;108904;1277;22031;-78
2023/04/01 05:54:49;;;;;;;9.00;7.10;;;;;;;10.08;72.97;98549.42;109003;1277;22015;-78
2023/04/01 05:57:48;;;;;;;12.60;7.80;;;;;;;10.09;72.88;98544.65;109051;1277;21960;-77
2023/04/01 06:00:30;;;;;;;8.40;7.60;;;;;;;10.09;73.15;98545.65;109025;1277;22011;-78
2023/04/01 06:03:19;;;;;;;12.60;8.50;;;;;;;10.11;73.01;98547.46;109072;1267;23160;-80
2023/04/01 06:06:12;;;;;;;13.50;9.30;;;;;;;10.15;73.04;98548.60;109870;1269;24511;-78
2023/04/01 06:09:30;;;;;;;10.10;8.10;;;;;;;10.15;73.10;98552.23;110070;1268;23838;-79
2023/04/01 06:12:52;;;;;;;13.40;9.30;;;;;;;10.16;73.29;98555.63;109130;1275;22307;-79
2023/04/01 06:15:57;;;;;;;12.20;9.60;;;;;;;10.19;73.37;98556.52;109369;1274;23107;-79
2023/04/01 06:18:46;;;;;;;;;;;;;;;10.21;73.46;98555.50;109433;1272;22005;-79
2023/04/01 06:21:47;;;;;;;14.50;13.00;;;;;;;10.18;73.70;98553.65;109494;1273;21989;-78
2023/04/01 06:25:19;;;;;;;17.70;14.50;;;;;;;10.21;73.76;98554.67;109485;1273;22329;-79
2023/04/01 06:28:45;;;;;;;10.40;9.50;;;;;;;10.29;73.80;98558.88;108772;1280;21988;-78
2023/04/01 06:31:42;;;;;;;10.40;9.10;;;;;;;10.36;73.93;98558.38;108849;1280;23650;-79
2023/04/01 06:34:51;;;;;;;10.70;9.60;;;;;;;10.41;73.74;98559.30;108997;1280;21983;-79
2023/04/01 06:37:51;;;;;;;10.30;9.30;;;;;;;10.44;73.88;98562.70;108973;1276;23077;-78
2023/04/01 06:40:54;;;;;;;11.40;9.80;;;;;;;10.47;73.72;98561.52;109197;1269;22080;-80
2023/04/01 06:44:07;;;;;;;12.60;11.30;;;;;;;10.51;73.93;98564.69;109181;1268;23988;-78
2023/04/01 06:47:15;;;;;;;17.90;13.60;;;;;;;10.58;73.87;98558.14;109324;1276;21999;-78
2023/04/01 06:50:51;;;;;;;14.60;12.70;;;;;;;10.66;73.90;98562.67;109603;1271;23607;-78
2023/04/01 06:54:33;;;;;;;14.80;13.30;;;;;;;10.76;74.12;98561.69;109477;1271;22063;-81
2023/04/01 06:58:34;;;;;;;14.20;12.70;;;;;;;10.87;73.99;98562.81;110057;1262;21967;-78
2023/04/01 07:01:50;;;;;;;13.70;12.10;;;;;;;10.96;73.76;98568.67;110346;1254;23081;-78
2023/04/01 07:04:59;;;;;;;13.90;9.80;;;;;;;11.02;73.64;98567.59;110086;1267;23039;-79
2023/04/01 07:08:09;;;;;;;9.70;8.50;;;;;;;11.06;73.39;98571.80;110202;1267;21940;-79
2023/04/01 07:11:40;;;;;;;11.60;7.30;;;;;;;11.08;73.28;98577.09;110251;1267;22160;-79
2023/04/01 07:14:53;;;;;;;10.90;7.90;;;;;;;11.07;73.30;98579.42;109663;1272;22015;-78
2023/04/01 07:17:36;;;;;;;9.40;8.10;;;;;;;11.16;73.42;98578.81;109567;1271;23851;-78
2023/04/01 07:20:42;;;;;;;8.70;7.80;;;;;;;11.26;73.23;98575.70;109631;1271;21980;-79
2023/04/01 07:23:50;;;;;;;10.50;9.50;;;;;;;11.35;73.26;98578.77;109581;1271;21817;-79
2023/04/01 07:30:01;;;;;;;14.80;13.20;;;;;;;11.47;72.74;98579.10;109236;1279;22707;-78
2023/04/01 07:33:25;;;;;;;15.20;13.50;;;;;;;11.52;72.67;98580.19;109054;1276;22770;-80
2023/04/01 07:36:20;;;;;;;7.70;6.80;;;;;;;11.62;72.85;98583.45;109181;1276;23087;-79
2023/04/01 07:39:25;;;;;;;10.40;7.70;;;;;;;11.71;72.47;98586.14;109082;1276;21967;-78
2023/04/01 07:43:17;;;;;;;8.50;7.80;;;;;;;11.74;72.21;98585.77;108941;1280;23048;-79
2023/04/01 07:51:15;;;;;;;7.50;6.80;;;;;;;11.57;71.16;98594.79;108681;1285;23695;-81
2023/04/01 07:54:42;;;;;;;13.30;8.80;;;;;;;11.41;71.07;98597.10;108750;1287;23679;-77
2023/04/01 07:58:31;;;;;;;5.60;5.10;;;;;;;11.35;71.19;98598.59;109041;1287;22720;-82
2023/04/01 08:01:50;;;;;;;7.00;4.80;;;;;;;11.20;71.18;98599.78;109070;1282;24623;-79
2023/04/01 08:04:56;;;;;;;13.90;6.80;;;;;;;11.13;71.36;98605.96;108737;1282;22018;-78
2023/04/01 08:07:58;;;;;;;6.30;5.50;;;;;;;11.10;71.45;98608.31;108903;1278;24395;-77
2023/04/01 08:11:12;;;;;;;9.80;8.90;;;;;;;11.08;71.63;98613.84;109216;1276;23007;-79
2023/04/01 08:14:51;;;;;;;8.10;7.30;;;;;;;11.10;71.86;98615.77;109111;1277;23204;-78
2023/04/01 08:18:32;;;;;;;8.40;7.60;;;;;;;11.11;72.05;98619.15;106679;1286;2453998;-79
2023/04/01 08:21:30;;;;;;;8.20;7.40;;;;;;;11.10;71.98;98616.27;108989;1280;22926;-81
2023/04/01 08:24:41;;;;;;;7.20;6.60;;;;;;;11.18;72.14;98621.52;108999;1281;24762;-80
2023/04/01 08:28:13;;;;;;;6.30;5.80;;;;;;;11.24;72.05;98623.14;108523;1282;21995;-81
2023/04/01 08:31:18;;;;;;;8.20;7.50;;;;;;;11.30;72.03;98620.83;108429;1289;22009;-80
2023/04/01 08:34:41;;;;;;;11.40;10.30;;;;;;;11.39;72.16;98619.39;108630;1290;22072;-82
2023/04/01 08:37:36;;;;;;;12.50;11.40;;;;;;;11.47;71.82;98622.99;108636;1288;22471;-80
2023/04/01 08:40:56;;;;;;;13.10;12.00;;;;;;;11.49;71.63;98622.01;108609;1279;22727;-79
2023/04/01 08:44:18;;;;;;;10.80;9.80;;;;;;;11.55;71.83;98627.52;108656;1281;22014;-79
2023/04/01 08:47:40;;;;;;;11.00;10.00;;;;;;;11.62;71.93;98627.70;108772;1288;22009;-79
2023/04/01 08:51:13;;;;;;;10.10;9.10;;;;;;;11.72;72.09;98629.28;108899;1282;23532;-79
2023/04/01 08:54:31;;;;;;;6.90;6.30;;;;;;;11.81;71.92;98625.91;109501;1275;22652;-79
2023/04/01 08:57:25;;;;;;;4.60;4.20;;;;;;;11.84;71.62;98632.95;109494;1275;22258;-79
2023/04/01 09:01:15;;;;;;;4.50;3.60;;;;;;;11.96;71.67;98632.16;109013;1275;22008;-79
2023/04/01 09:04:39;;;;;;;5.90;3.80;;;;;;;12.12;71.64;98634.34;109532;1274;21997;-80
2023/04/01 09:07:43;;;;;;;5.60;5.10;;;;;;;12.23;71.11;98637.58;108794;1283;21994;-79
2023/04/01 09:10:32;;;;;;;7.10;6.20;;;;;;;12.24;70.40;98638.20;108867;1283;22001;-79
2023/04/01 09:14:01;;;;;;;5.20;4.60;;;;;;;12.24;70.03;98640.14;108956;1283;22446;-79
2023/04/01 09:17:18;;;;;;;5.20;4.70;;;;;;;12.18;69.69;98645.46;108676;1286;22181;-80
2023/04/01 09:20:45;;;;;;;5.10;4.50;;;;;;;12.06;69.62;98649.63;108428;1289;22009;-79
2023/04/01 09:24:26;;;;;;;5.30;4.10;;;;;;;11.95;69.54;98647.10;108403;1290;21735;-78
2023/04/01 09:27:34;;;;;;;4.20;3.50;;;;;;;11.89;69.96;98650.40;108698;1287;22075;-79
2023/04/01 09:30:59;;;;;;;4.50;3.50;;;;;;;11.91;70.18;98655.16;108363;1287;22095;-79
2023/04/01 09:34:29;;;;;;;7.50;3.90;;;;;;;11.97;70.22;98659.79;108387;1287;23710;-78
2023/04/01 09:37:31;;;;;;;5.60;4.30;;;;;;;12.11;70.59;98663.55;108753;1280;21990;-81
2023/04/01 09:40:52;;;;;;;4.80;4.40;;;;;;;12.26;70.44;98666.84;108863;1281;22000;-77
2023/04/01 09:44:02;;;;;;;4.50;4.10;;;;;;;12.40;70.35;98669.69;109086;1270;22113;-79
2023/04/01 09:47:30;;;;;;;6.10;5.50;;;;;;;12.57;70.26;98666.56;109612;1270;22296;-79
2023/04/01 09:50:36;;;;;;;5.70;5.10;;;;;;;12.77;70.00;98665.23;109979;1270;21977;-78
2023/04/01 09:53:21;;;;;;;6.50;5.90;;;;;;;13.06;70.04;98665.34;109592;1270;22038;-79
2023/04/01 09:56:32;;;;;;;6.40;5.40;;;;;;;13.31;69.24;98663.20;109850;1270;21980;-79
2023/04/01 09:59:34;;;;;;;5.70;5.20;;;;;;;13.59;68.71;98665.06;109771;1271;22495;-79
2023/04/01 10:03:10;;;;;;;5.60;5.10;;;;;;;13.82;67.91;98663.48;109720;1270;23047;-78
2023/04/01 10:06:13;;;;;;;5.80;5.30;;;;;;;14.00;66.83;98667.13;109679;1270;23064;-76
2023/04/01 10:09:25;;;;;;;5.10;4.60;;;;;;;13.93;65.37;98668.73;109676;1269;21979;-78
2023/04/01 10:12:59;;;;;;;8.20;6.30;;;;;;;13.65;64.34;98671.73;109770;1270;21986;-81
2023/04/01 10:16:13;;;;;;;5.80;5.20;;;;;;;13.29;64.10;98677.98;110117;1269;22056;-78
2023/04/01 10:19:07;;;;;;;6.70;5.80;;;;;;;12.93;64.36;98681.84;110100;1269;21981;-78
2023/04/01 10:22:40;;;;;;;5.00;4.50;;;;;;;12.63;64.94;98686.11;110009;1270;21994;-80
2023/04/01 10:26:03;;;;;;;5.30;4.80;;;;;;;12.32;65.58;98691.73;109308;1274;23871;-79
2023/04/01 10:29:28;;;;;;;6.90;5.80;;;;;;;12.06;66.51;98691.30;109330;1277;22005;-80
2023/04/01 10:32:41;;;;;;;6.90;6.30;;;;;;;12.01;67.32;98692.64;109461;1276;24430;-77
2023/04/01 10:36:28;;;;;;;7.00;6.10;;;;;;;12.05;67.84;98693.44;109128;1276;22054;-80
2023/04/01 10:39:10;;;;;;;6.10;5.50;;;;;;;12.04;68.22;98691.59;108112;1292;23177;-78
2023/04/01 10:42:33;;;;;;;6.30;5.70;;;;;;;12.04;68.65;98690.16;108389;1288;21998;-79
2023/04/01 10:45:38;;;;;;;6.40;5.80;;;;;;;12.13;69.13;98690.29;107966;1295;22011;-78
2023/04/01 10:48:25;;;;;;;7.20;6.40;;;;;;;12.22;68.89;98694.48;107599;1300;22032;-79
2023/04/01 10:52:36;;;;;;;6.10;5.50;;;;;;;12.40;68.21;98696.93;108394;1284;544269;-78
2023/04/01 10:55:52;;;;;;;8.00;5.70;;;;;;;12.10;67.89;98697.64;109280;1276;23722;-80
2023/04/01 10:59:27;;;;;;;5.70;5.10;;;;;;;11.89;68.09;98699.95;109788;1270;23729;-81
2023/04/01 11:02:53;;;;;;;6.10;5.30;;;;;;;11.75;68.54;98702.95;109383;1273;22813;-78
2023/04/01 11:06:47;;;;;;;6.20;5.70;;;;;;;11.77;69.20;98708.27;103496;1271;8120029;-76
2023/04/01 11:09:46;;;;;;;7.30;6.20;;;;;;;11.84;69.35;98710.38;109654;1271;21971;-79
2023/04/01 11:13:17;;;;;;;4.60;4.20;;;;;;;11.88;69.23;98715.34;109748;1271;21976;-80
2023/04/01 11:16:53;;;;;;;9.10;4.80;;;;;;;11.84;69.28;98715.73;109875;1267;23750;-80
2023/04/01 11:20:05;;;;;;;4.80;3.80;;;;;;;11.87;69.70;98717.83;110142;1267;23705;-76
2023/04/01 11:23:41;;;;;;;3.80;3.50;;;;;;;11.95;69.88;98713.99;110117;1267;21989;-78
2023/04/01 11:27:23;;;;;;;;;;;;;;;12.07;70.00;98716.61;111211;1256;23082;-78
2023/04/01 11:30:45;;;;;;;5.80;5.30;;;;;;;12.15;70.29;98720.27;110251;1268;21973;-77
2023/04/01 11:34:17;;;;;;;4.70;4.20;;;;;;;12.43;70.64;98722.15;110263;1267;21996;-78
2023/04/01 11:37:01;;;;;;;20.20;18.40;;;;;;;12.72;70.17;98723.77;110138;1263;21986;-77
2023/04/01 11:40:18;;;;;;;6.90;6.30;;;;;;;12.85;69.19;98724.00;110387;1267;21980;-77
2023/04/01 11:44:20;;;;;;;6.60;5.00;;;;;;;12.86;68.52;98728.98;109629;1272;22401;-78
2023/04/01 11:47:29;;;;;;;4.80;4.30;;;;;;;12.89;68.10;98733.16;109712;1270;23088;-77
2023/04/01 11:50:42;;;;;;;4.20;3.80;;;;;;;12.83;67.37;98736.38;110227;1264;22059;-77
2023/04/01 11:53:38;;;;;;;4.40;4.00;;;;;;;12.55;66.88;98742.89;110375;1267;21969;-78
2023/04/01 11:56:41;;;;;;;6.00;5.00;;;;;;;12.40;67.11;98745.89;110038;1267;21971;-80
2023/04/01 11:59:35;;;;;;;;;;;;;;;12.34;67.40;98750.38;110011;1268;21994;-79
2023/04/01 12:02:41;;;;;;;7.80;7.10;;;;;;;12.27;68.02;98750.52;109375;1274;21989;-79
2023/04/01 12:06:07;;;;;;;7.70;6.90;;;;;;;12.31;68.21;98752.84;110294;1270;22487;-80
2023/04/01 12:09:52;;;;;;;7.20;6.50;;;;;;;12.34;68.46;98756.42;110206;1270;21988;-83
2023/04/01 12:12:48;;;;;;;6.40;5.80;;;;;;;12.48;68.93;98758.61;110225;1270;22010;-81
2023/04/01 12:16:07;;;;;;;7.40;6.60;;;;;;;12.64;68.78;98759.57;110449;1270;21985;-84
2023/04/01 12:18:48;;;;;;;8.00;7.30;;;;;;;12.70;68.34;98759.84;110717;1262;22430;-78
2023/04/01 12:21:36;;;;;;;6.90;6.40;;;;;;;12.81;68.49;98767.23;110148;1265;23696;-80
2023/04/01 12:24:45;;;;;;;6.80;6.20;;;;;;;12.92;67.88;98773.60;109807;1271;21778;-80
2023/04/01 12:28:10;;;;;;;8.20;7.40;;;;;;;12.95;67.61;98777.06;110380;1264;21978;-81
2023/04/01 12:31:40;;;;;;;8.30;7.20;;;;;;;12.93;67.09;98784.02;111037;1264;21978;-78
2023/04/01 12:35:03;;;;;;;8.60;7.80;;;;;;;12.86;66.90;98787.63;110733;1264;22420;-78
2023/04/01 12:37:52;;;;;;;10.30;9.30;;;;;;;12.87;66.79;98788.99;110598;1251;22761;-78
2023/04/01 12:40:53;;;;;;;10.10;9.20;;;;;;;12.88;66.46;98795.91;110549;1264;23663;-79
2023/04/01 12:44:30;;;;;;;9.70;8.80;;;;;;;12.81;66.16;98803.75;111198;1257;23805;-79
2023/04/01 12:47:49;;;;;;;;;;;;;;;12.62;65.74;98806.31;110420;1267;22488;-82
2023/04/01 12:50:37;;;;;;;11.30;10.00;;;;;;;12.31;65.39;98812.61;110656;1264;21967;-78
2023/04/01 12:54:10;;;;;;;10.70;9.70;;;;;;;12.14;65.86;98817.63;110319;1267;22038;-80
2023/04/01 12:57:29;;;;;;;12.30;11.20;;;;;;;12.10;66.58;98822.77;109659;1274;22316;-78
2023/04/01 13:00:55;;;;;;;12.10;10.80;;;;;;;12.09;66.41;98828.78;110162;1269;23638;-81
2023/04/01 13:04:22;;;;;;;15.80;14.10;;;;;;;12.03;66.47;98830.39;109504;1273;22091;-78
2023/04/01 13:07:30;;;;;;;13.40;12.10;;;;;;;11.97;66.57;98833.82;109197;1278;21992;-78
2023/04/01 13:10:49;;;;;;;13.80;12.60;;;;;;;11.93;66.75;98836.51;108601;1285;22958;-80
2023/04/01 13:14:25;;;;;;;14.70;13.20;;;;;;;11.89;66.81;98844.41;108721;1285;22957;-78
2023/04/01 13:17:06;;;;;;;;;;;;;;;11.81;66.77;98850.52;108163;1289;22514;-80
2023/04/01 13:20:11;;;;;;;15.30;13.70;;;;;;;11.72;67.06;98852.31;108407;1289;23101;-79
2023/04/01 13:23:14;;;;;;;16.30;14.70;;;;;;;11.75;67.20;98850.58;108514;1285;23730;-80
2023/04/01 13:26:30;;;;;;;14.50;13.20;;;;;;;11.76;66.97;98855.39;108823;1280;23647;-81
2023/04/01 13:29:16;;;;;;;16.90;15.30;;;;;;;11.68;66.66;98860.79;109226;1274;24345;-77
2023/04/01 13:32:09;;;;;;;19.00;17.30;;;;;;;11.60;66.49;98867.40;109217;1273;22078;-79
2023/04/01 13:35:33;;;;;;;17.60;16.10;;;;;;;11.51;66.63;98865.20;109824;1271;21977;-80
2023/04/01 13:38:35;;;;;;;19.30;17.30;;;;;;;11.35;66.60;98870.91;109834;1266;21991;-80
2023/04/01 13:41:30;;;;;;;17.20;15.70;;;;;;;11.26;66.85;98874.14;109862;1271;23847;-80
2023/04/01 13:44:40;;;;;;;17.50;15.90;;;;;;;11.26;67.10;98877.13;109872;1260;22040;-80
2023/04/01 13:48:12;;;;;;;17.20;15.50;;;;;;;11.25;67.07;98881.38;109500;1272;21996;-80
2023/04/01 13:51:57;;;;;;;17.30;15.60;;;;;;;11.21;67.03;98887.88;109126;1280;22068;-80
2023/04/01 13:55:21;;;;;;;24.60;22.30;;;;;;;11.06;66.63;98890.55;109177;1275;21982;-78
2023/04/01 13:58:31;;;;;;;25.50;22.90;;;;;;;10.93;66.99;98897.65;109218;1275;22120;-78
2023/04/01 14:01:38;;;;;;;26.20;23.70;;;;;;;10.88;67.12;98903.02;109454;1273;21981;-79
2023/04/01 14:05:33;;;;;;;31.30;28.40;;;;;;;10.81;67.31;98907.11;109381;1273;22066;-79
2023/04/01 14:09:21;;;;;;;34.10;30.60;;;;;;;10.66;67.39;98908.01;109227;1266;22329;-79
2023/04/01 14:13:05;;;;;;;29.20;26.20;;;;;;;10.52;67.72;98909.73;109530;1271;21958;-78
2023/04/01 14:16:32;;;;;;;27.30;24.60;;;;;;;10.50;68.28;98917.16;109510;1271;23104;-79
2023/04/01 14:20:01;;;;;;;30.60;27.50;;;;;;;10.52;68.53;98923.81;109637;1273;23060;-78
2023/04/01 14:23:26;;;;;;;48.10;39.10;;;;;;;10.50;68.58;98925.34;109231;1273;23055;-77
2023/04/01 14:27:02;;;;;;;26.60;24.00;;;;;;;10.43;68.29;98927.79;109771;1266;21981;-76